createdAt,value
2022-11-15T00:01:37.285Z,50.57
2022-11-15T00:04:33.801Z,53.53
2022-11-15T00:07:54.079Z,48.67
2022-11-15T00:11:00.966Z,52.63
2022-11-15T00:13:59.535Z,50.00
2022-11-15T00:17:02.489Z,51.77
2022-11-15T00:20:10.762Z,53.47
2022-11-15T00:23:20.564Z,50.10
2022-11-15T00:26:18.906Z,53.13
2022-11-15T00:29:23.483Z,54.10
2022-11-15T00:32:28.514Z,53.40
2022-11-15T00:35:28.246Z,53.53
2022-11-15T00:38:24.088Z,51.60
2022-11-15T00:41:47.942Z,54.03
2022-11-15T00:44:50.912Z,50.80
2022-11-15T00:48:00.408Z,50.80
2022-11-15T00:51:07.824Z,50.97
2022-11-15T00:54:12.690Z,50.37
2022-11-15T00:57:10.867Z,52.00
2022-11-15T01:00:14.714Z,53.47
2022-11-15T01:03:12.921Z,52.60
2022-11-15T01:06:18.275Z,51.33
2022-11-15T01:09:18.294Z,50.50
2022-11-15T01:12:16.805Z,52.30
2022-11-15T01:15:27.186Z,50.87
2022-11-15T01:18:25.355Z,53.37
2022-11-15T01:21:32.774Z,52.13
2022-11-15T01:24:35.241Z,51.67
2022-11-15T01:27:38.600Z,50.83
2022-11-15T01:30:43.925Z,51.03
2022-11-15T01:33:39.250Z,54.03
2022-11-15T01:36:28.743Z,51.10
2022-11-15T01:39:28.220Z,52.63
2022-11-15T01:42:31.653Z,55.20
2022-11-15T01:45:29.499Z,50.67
2022-11-15T01:48:38.989Z,51.83
2022-11-15T01:51:41.610Z,52.23
2022-11-15T01:54:41.960Z,51.60
2022-11-15T01:58:10.029Z,51.87
2022-11-15T02:01:21.382Z,53.00
2022-11-15T02:04:27.680Z,52.93
2022-11-15T02:07:29.601Z,53.17
2022-11-15T02:10:44.218Z,52.03
2022-11-15T02:13:34.408Z,50.67
2022-11-15T02:16:49.864Z,51.57
2022-11-15T02:20:07.914Z,54.77
2022-11-15T02:23:37.130Z,51.03
2022-11-15T02:27:14.812Z,50.60
2022-11-15T02:30:54.690Z,48.60
2022-11-15T02:34:02.838Z,52.10
2022-11-15T02:37:19.401Z,53.00
2022-11-15T02:40:28.236Z,51.10
2022-11-15T02:43:48.087Z,51.57
2022-11-15T02:47:03.511Z,48.47
2022-11-15T02:50:10.930Z,51.10
2022-11-15T02:53:11.666Z,50.87
2022-11-15T02:56:04.668Z,52.60
2022-11-15T02:59:35.160Z,47.33
2022-11-15T03:06:40.298Z,48.90
2022-11-15T03:09:50.356Z,53.13
2022-11-15T03:13:09.246Z,47.60
2022-11-15T03:16:18.578Z,49.13
2022-11-15T03:19:32.809Z,48.10
2022-11-15T03:22:34.505Z,47.77
2022-11-15T03:25:40.622Z,48.23
2022-11-15T03:28:44.218Z,49.10
2022-11-15T03:31:51.344Z,49.17
2022-11-15T03:34:46.789Z,50.53
2022-11-15T03:37:43.255Z,47.70
2022-11-15T03:40:37.800Z,46.93
2022-11-15T03:43:36.061Z,46.20
2022-11-15T03:46:29.068Z,45.73
2022-11-15T03:49:22.254Z,46.00
2022-11-15T03:52:14.230Z,47.67
2022-11-15T03:55:04.488Z,45.87
2022-11-15T03:57:55.840Z,45.17
2022-11-15T04:00:44.304Z,43.93
2022-11-15T04:03:33.269Z,45.00
2022-11-15T04:06:21.907Z,43.63
2022-11-15T04:09:11.483Z,45.40
2022-11-15T04:11:59.715Z,46.50
2022-11-15T04:15:08.181Z,45.30
2022-11-15T04:17:59.430Z,44.20
2022-11-15T04:21:05.136Z,45.70
2022-11-15T04:24:10.733Z,45.23
2022-11-15T04:27:02.725Z,45.03
2022-11-15T04:29:51.120Z,42.50
2022-11-15T04:32:39.275Z,47.10
2022-11-15T04:35:27.975Z,45.63
2022-11-15T04:38:16.416Z,45.00
2022-11-15T04:41:05.293Z,41.50
2022-11-15T04:43:56.489Z,46.87
2022-11-15T04:46:45.227Z,45.83
2022-11-15T04:49:33.702Z,44.17
2022-11-15T04:52:22.430Z,45.53
2022-11-15T04:55:11.407Z,45.20
2022-11-15T04:58:01.761Z,46.60
2022-11-15T05:00:52.124Z,44.43
2022-11-15T05:04:02.440Z,45.90
2022-11-15T05:07:18.536Z,46.00
2022-11-15T05:10:17.719Z,46.67
2022-11-15T05:16:17.858Z,47.67
2022-11-15T05:19:11.609Z,44.00
2022-11-15T05:22:00.379Z,40.50
2022-11-15T05:24:48.707Z,45.70
2022-11-15T05:27:37.631Z,44.60
2022-11-15T05:30:26.222Z,44.70
2022-11-15T05:33:16.697Z,44.93
2022-11-15T05:36:09.960Z,46.97
2022-11-15T05:38:58.808Z,45.30
2022-11-15T05:41:51.111Z,46.00
2022-11-15T05:44:44.076Z,45.83
2022-11-15T05:47:33.166Z,45.27
2022-11-15T05:50:23.225Z,45.77
2022-11-15T05:53:15.516Z,47.10
2022-11-15T05:56:05.054Z,46.87
2022-11-15T05:58:59.204Z,45.80
2022-11-15T06:01:48.298Z,44.53
2022-11-15T06:04:38.901Z,45.30
2022-11-15T06:07:28.644Z,44.07
2022-11-15T06:10:17.975Z,47.00
2022-11-15T06:13:07.142Z,46.40
2022-11-15T06:15:59.121Z,44.43
2022-11-15T06:18:47.484Z,45.80
2022-11-15T06:21:35.903Z,48.77
2022-11-15T06:24:25.623Z,50.07
2022-11-15T06:27:16.230Z,47.70
2022-11-15T06:30:04.724Z,46.00
2022-11-15T06:32:55.389Z,47.63
2022-11-15T06:35:45.191Z,47.30
2022-11-15T06:38:33.785Z,52.37
2022-11-15T06:41:23.604Z,45.93
2022-11-15T06:44:11.859Z,50.50
2022-11-15T06:47:00.045Z,50.50
2022-11-15T06:49:48.271Z,46.80
2022-11-15T06:52:37.752Z,49.90
2022-11-15T06:55:26.117Z,47.93
2022-11-15T06:58:16.622Z,49.40
2022-11-15T07:01:07.159Z,46.63
2022-11-15T07:03:55.419Z,47.47
2022-11-15T07:06:45.185Z,48.97
2022-11-15T07:09:33.749Z,46.17
2022-11-15T07:12:23.369Z,49.03
2022-11-15T07:15:13.473Z,47.07
2022-11-15T07:18:03.917Z,48.60
2022-11-15T07:20:52.222Z,46.00
2022-11-15T07:23:42.360Z,46.50
2022-11-15T07:26:30.777Z,43.87
2022-11-15T07:29:20.424Z,42.67
2022-11-15T07:32:10.075Z,40.83
2022-11-15T07:34:58.884Z,42.33
2022-11-15T07:37:54.704Z,42.03
2022-11-15T07:40:43.559Z,41.23
2022-11-15T07:43:36.992Z,40.90
2022-11-15T07:46:25.363Z,42.93
2022-11-15T07:49:14.992Z,42.53
2022-11-15T07:52:04.759Z,41.60
2022-11-15T07:54:54.943Z,41.30
2022-11-15T07:57:43.156Z,39.83
2022-11-15T08:00:32.030Z,39.00
2022-11-15T08:03:20.195Z,38.70
2022-11-15T08:06:13.820Z,38.70
2022-11-15T08:09:03.589Z,39.10
2022-11-15T08:11:51.824Z,39.53
2022-11-15T08:14:41.317Z,37.10
2022-11-15T08:17:33.894Z,37.23
2022-11-15T08:20:22.184Z,35.17
2022-11-15T08:23:13.774Z,30.80
2022-11-15T08:26:04.181Z,32.13
2022-11-15T08:28:53.996Z,30.37
2022-11-15T08:31:43.684Z,29.63
2022-11-15T08:34:31.921Z,27.83
2022-11-15T08:37:20.682Z,26.87
2022-11-15T08:40:11.881Z,27.53
2022-11-15T08:43:03.648Z,26.53
2022-11-15T08:45:53.169Z,26.20
2022-11-15T08:48:41.552Z,26.40
2022-11-15T08:51:30.358Z,23.60
2022-11-15T08:54:18.578Z,24.20
2022-11-15T08:57:10.598Z,23.10
2022-11-15T08:59:59.257Z,25.10
2022-11-15T09:02:51.699Z,23.70
2022-11-15T09:05:40.355Z,24.80
2022-11-15T09:08:46.955Z,24.50
2022-11-15T09:11:40.849Z,21.20
2022-11-15T09:14:37.158Z,25.77
2022-11-15T09:17:25.472Z,21.77
2022-11-15T09:20:14.804Z,24.20
2022-11-15T09:23:03.761Z,22.27
2022-11-15T09:25:52.251Z,21.80
2022-11-15T09:28:43.514Z,20.30
2022-11-15T09:31:33.475Z,21.37
2022-11-15T09:34:25.310Z,20.57
2022-11-15T09:37:14.458Z,21.80
2022-11-15T09:40:06.881Z,20.00
2022-11-15T09:43:06.372Z,21.00
2022-11-15T09:46:05.456Z,20.37
2022-11-15T09:49:04.260Z,20.20
2022-11-15T09:51:55.346Z,20.03
2022-11-15T09:54:54.236Z,19.53
2022-11-15T09:57:53.049Z,20.27
2022-11-15T10:00:47.431Z,19.40
2022-11-15T10:03:45.396Z,20.30
2022-11-15T10:06:40.750Z,18.90
2022-11-15T10:09:35.614Z,19.50
2022-11-15T10:12:25.176Z,19.80
2022-11-15T10:15:24.295Z,19.47
2022-11-15T10:18:19.252Z,19.67
2022-11-15T10:21:21.972Z,19.27
2022-11-15T10:24:20.313Z,18.57
2022-11-15T10:27:14.267Z,19.40
2022-11-15T10:30:02.949Z,18.47
2022-11-15T10:32:51.865Z,17.67
2022-11-15T10:35:43.824Z,17.97
2022-11-15T10:38:32.529Z,17.60
2022-11-15T10:41:24.769Z,17.83
2022-11-15T10:44:28.470Z,18.43
2022-11-15T10:47:39.000Z,17.57
2022-11-15T10:50:31.177Z,17.90
2022-11-15T10:53:25.323Z,16.57
2022-11-15T10:56:17.870Z,17.80
2022-11-15T10:59:17.284Z,17.53
2022-11-15T11:02:30.570Z,17.50
2022-11-15T11:05:30.112Z,16.30
2022-11-15T11:08:27.154Z,18.10
2022-11-15T11:11:15.513Z,18.90
2022-11-15T11:14:14.288Z,17.93
2022-11-15T11:17:14.758Z,15.60
2022-11-15T11:20:07.294Z,16.40
2022-11-15T11:23:26.746Z,16.53
2022-11-15T11:26:33.609Z,17.93
2022-11-15T11:29:42.767Z,17.00
2022-11-15T11:32:44.489Z,16.60
2022-11-15T11:35:41.208Z,16.90
2022-11-15T11:38:56.114Z,16.70
2022-11-15T11:41:57.918Z,17.40
2022-11-15T11:44:56.117Z,18.17
2022-11-15T11:47:50.245Z,18.23
2022-11-15T11:50:40.101Z,17.43
2022-11-15T11:53:35.730Z,16.50
2022-11-15T11:56:31.165Z,17.47
2022-11-15T11:59:27.832Z,16.30
2022-11-15T12:02:23.650Z,15.90
2022-11-15T12:05:20.624Z,15.23
2022-11-15T12:08:26.225Z,16.17
2022-11-15T12:11:18.336Z,16.87
2022-11-15T12:14:19.096Z,15.07
2022-11-15T12:17:07.503Z,15.33
2022-11-15T12:20:01.535Z,15.87
2022-11-15T12:22:57.819Z,15.90
2022-11-15T12:25:52.544Z,16.60
2022-11-15T12:29:05.920Z,14.70
2022-11-15T12:32:00.829Z,14.33
2022-11-15T12:34:51.503Z,13.90
2022-11-15T12:37:52.647Z,15.77
2022-11-15T12:41:02.032Z,16.10
2022-11-15T12:43:52.883Z,16.60
2022-11-15T12:47:04.513Z,17.77
2022-11-15T12:49:53.026Z,18.63
2022-11-15T12:53:25.001Z,17.10
2022-11-15T12:56:33.161Z,16.60
2022-11-15T12:59:51.026Z,16.13
2022-11-15T13:02:42.861Z,16.80
2022-11-15T13:06:07.567Z,16.47
2022-11-15T13:08:56.258Z,17.20
2022-11-15T13:12:00.112Z,17.03
2022-11-15T13:14:58.021Z,18.10
2022-11-15T13:17:48.236Z,17.57
2022-11-15T13:20:36.573Z,19.27
2022-11-15T13:23:25.505Z,16.37
2022-11-15T13:26:18.188Z,18.03
2022-11-15T13:29:18.444Z,18.73
2022-11-15T13:32:14.275Z,18.23
2022-11-15T13:35:03.472Z,17.50
2022-11-15T13:37:53.366Z,19.00
2022-11-15T13:40:43.027Z,18.90
2022-11-15T13:43:40.118Z,16.87
2022-11-15T13:46:31.528Z,18.23
2022-11-15T13:49:19.714Z,15.80
2022-11-15T13:52:10.866Z,17.77
2022-11-15T13:55:04.687Z,16.37
2022-11-15T13:57:58.998Z,16.40
2022-11-15T14:00:49.558Z,16.93
2022-11-15T14:03:51.089Z,16.57
2022-11-15T14:06:47.862Z,15.03
2022-11-15T14:09:41.176Z,16.47
2022-11-15T14:12:33.002Z,16.27
2022-11-15T14:15:29.719Z,15.57
2022-11-15T14:18:45.643Z,14.83
2022-11-15T14:21:34.673Z,14.73
2022-11-15T14:24:25.065Z,16.00
2022-11-15T14:27:25.828Z,15.60
2022-11-15T14:30:18.779Z,16.30
2022-11-15T14:33:22.027Z,16.63
2022-11-15T14:36:21.112Z,16.83
2022-11-15T14:39:10.668Z,18.53
2022-11-15T14:41:58.875Z,17.33
2022-11-15T14:44:48.051Z,17.23
2022-11-15T14:47:36.425Z,17.90
2022-11-15T14:50:24.809Z,18.07
2022-11-15T14:53:17.991Z,17.70
2022-11-15T14:56:06.668Z,18.17
2022-11-15T14:58:56.031Z,18.47
2022-11-15T15:01:44.642Z,18.23
2022-11-15T15:04:32.925Z,17.60
2022-11-15T15:07:25.193Z,19.00
2022-11-15T15:13:26.361Z,19.40
2022-11-15T15:16:15.044Z,20.70
2022-11-15T15:19:04.098Z,20.70
2022-11-15T15:21:54.856Z,21.77
2022-11-15T15:25:39.897Z,20.47
2022-11-15T15:28:37.138Z,20.60
2022-11-15T15:31:31.876Z,21.47
2022-11-15T15:34:20.712Z,21.80
2022-11-15T15:37:22.176Z,23.07
2022-11-15T15:40:17.188Z,21.70
2022-11-15T15:43:11.546Z,21.40
2022-11-15T15:46:00.931Z,21.00
2022-11-15T15:48:53.327Z,20.77
2022-11-15T15:51:52.202Z,20.70
2022-11-15T15:54:41.400Z,23.60
2022-11-15T15:57:31.046Z,23.00
2022-11-15T16:00:24.715Z,22.70
2022-11-15T16:03:17.567Z,22.13
2022-11-15T16:06:39.593Z,22.40
2022-11-15T16:09:42.617Z,22.27
2022-11-15T16:12:35.708Z,23.23
2022-11-15T16:15:31.966Z,23.03
2022-11-15T16:18:30.949Z,24.57
2022-11-15T16:21:25.469Z,23.67
2022-11-15T16:24:16.365Z,24.63
2022-11-15T16:27:05.797Z,24.80
2022-11-15T16:29:54.638Z,25.00
2022-11-15T16:32:49.889Z,24.50
2022-11-15T16:35:40.606Z,25.77
2022-11-15T16:38:35.681Z,27.07
2022-11-15T16:41:28.944Z,26.20
2022-11-15T16:44:18.438Z,26.97
2022-11-15T16:47:17.783Z,29.03
2022-11-15T16:50:24.454Z,28.80
2022-11-15T16:53:13.643Z,27.67
2022-11-15T16:56:03.503Z,30.77
2022-11-15T16:58:53.281Z,34.57
2022-11-15T17:01:47.148Z,33.43
2022-11-15T17:04:36.100Z,32.70
2022-11-15T17:07:27.927Z,35.43
2022-11-15T17:10:18.417Z,35.47
2022-11-15T17:13:07.208Z,33.90
2022-11-15T17:16:05.737Z,39.63
2022-11-15T17:18:55.045Z,39.10
2022-11-15T17:21:44.956Z,41.30
2022-11-15T17:24:36.769Z,42.23
2022-11-15T17:27:28.228Z,42.30
2022-11-15T17:30:22.714Z,42.67
2022-11-15T17:33:12.039Z,41.43
2022-11-15T17:36:02.470Z,45.17
2022-11-15T17:38:59.291Z,44.90
2022-11-15T17:41:50.397Z,45.57
2022-11-15T17:44:39.812Z,46.80
2022-11-15T17:47:31.371Z,46.23
2022-11-15T17:50:22.014Z,44.83
2022-11-15T17:53:11.986Z,46.80
2022-11-15T17:56:04.114Z,48.20
2022-11-15T17:58:55.922Z,47.93
2022-11-15T18:01:46.741Z,47.73
2022-11-15T18:04:38.063Z,47.67
2022-11-15T18:07:30.122Z,47.67
2022-11-15T18:10:19.502Z,48.50
2022-11-15T18:13:09.697Z,44.17
2022-11-15T18:16:04.041Z,47.40
2022-11-15T18:18:53.854Z,49.30
2022-11-15T18:22:01.784Z,47.47
2022-11-15T18:24:54.378Z,46.60
2022-11-15T18:27:46.553Z,46.80
2022-11-15T18:44:53.377Z,47.23
2022-11-15T18:47:42.768Z,48.00
2022-11-15T18:50:31.847Z,50.27
2022-11-15T18:53:22.558Z,49.13
2022-11-15T18:56:23.185Z,48.27
2022-11-15T19:05:23.687Z,50.10
2022-11-15T19:14:28.096Z,47.50
2022-11-15T19:17:17.512Z,48.20
2022-11-15T19:20:08.374Z,50.50
2022-11-15T19:28:59.873Z,51.80
2022-11-15T19:31:52.572Z,51.47
2022-11-15T19:34:44.551Z,54.20
2022-11-15T19:37:43.963Z,51.07
2022-11-15T19:40:45.567Z,54.10
2022-11-15T19:43:38.529Z,50.50
2022-11-15T19:49:25.710Z,68.03
2022-11-15T19:55:13.238Z,54.43
2022-11-15T19:58:02.785Z,51.93
2022-11-15T20:00:57.437Z,54.23
2022-11-15T20:03:51.694Z,54.37
2022-11-15T20:06:48.817Z,52.57
2022-11-15T20:09:38.613Z,54.20
2022-11-15T20:12:32.680Z,53.93
2022-11-15T20:18:31.153Z,51.13
2022-11-15T20:21:23.277Z,53.17
2022-11-15T20:33:25.012Z,51.87
2022-11-15T22:03:08.353Z,43.87
2022-11-15T22:06:00.623Z,47.77
2022-11-15T22:08:54.934Z,45.27
2022-11-15T22:11:45.797Z,46.37
2022-11-15T22:14:36.797Z,45.90
2022-11-15T22:17:44.878Z,45.93
2022-11-15T22:21:00.383Z,44.87
2022-11-15T22:24:03.650Z,45.30
2022-11-15T22:26:58.980Z,42.70
2022-11-15T22:29:50.662Z,45.47
2022-11-15T22:32:42.906Z,46.83
2022-11-15T22:35:41.910Z,48.37
2022-11-15T22:38:37.047Z,49.10
2022-11-15T22:41:28.206Z,46.83
2022-11-15T22:44:19.866Z,46.67
2022-11-15T22:47:11.718Z,47.00
2022-11-15T22:50:01.930Z,46.00
2022-11-15T22:53:03.605Z,47.07
2022-11-15T22:56:17.555Z,48.30
2022-11-15T22:59:34.421Z,45.67
2022-11-15T23:02:41.426Z,47.50
2022-11-15T23:06:03.418Z,49.37
2022-11-15T23:09:24.401Z,47.40
2022-11-15T23:12:37.569Z,52.03
2022-11-15T23:16:10.610Z,47.30
2022-11-15T23:19:16.081Z,47.80
2022-11-15T23:22:29.968Z,49.57
2022-11-15T23:25:45.059Z,48.33
2022-11-15T23:28:55.531Z,51.43
2022-11-15T23:32:25.616Z,48.90
2022-11-15T23:38:59.945Z,50.60
2022-11-15T23:45:46.433Z,47.67
2022-11-15T23:48:58.694Z,49.20
2022-11-15T23:52:26.893Z,46.87
2022-11-15T23:55:39.309Z,47.37
2022-11-15T23:59:05.368Z,45.07
